createdAt,value
2017-12-29T00:01:48.994Z,21.27
2017-12-29T00:04:16.396Z,19.97
2017-12-29T00:06:43.782Z,13.80
2017-12-29T00:09:11.174Z,19.27
2017-12-29T00:11:38.578Z,14.00
2017-12-29T00:14:06.780Z,14.70
2017-12-29T00:16:34.163Z,15.17
2017-12-29T00:19:01.562Z,18.77
2017-12-29T00:21:29.050Z,14.30
2017-12-29T00:23:56.458Z,17.17
2017-12-29T00:26:23.846Z,10.50
2017-12-29T00:28:51.320Z,15.30
2017-12-29T00:31:18.702Z,15.57
2017-12-29T00:33:46.099Z,16.53
2017-12-29T00:36:13.482Z,15.07
2017-12-29T00:38:40.940Z,16.40
2017-12-29T00:41:08.362Z,14.87
2017-12-29T00:43:35.762Z,12.43
2017-12-29T00:46:03.170Z,24.07
2017-12-29T00:48:30.558Z,16.70
2017-12-29T00:50:57.941Z,23.57
2017-12-29T00:53:25.334Z,13.97
2017-12-29T00:55:52.720Z,13.93
2017-12-29T00:58:20.130Z,15.00
2017-12-29T01:00:47.526Z,11.10
2017-12-29T01:03:14.913Z,29.20
2017-12-29T01:05:42.314Z,14.00
2017-12-29T01:08:09.698Z,11.27
2017-12-29T01:10:37.095Z,11.20
2017-12-29T01:13:04.510Z,21.93
2017-12-29T01:15:31.921Z,12.00
2017-12-29T01:17:59.307Z,13.87
2017-12-29T01:20:26.692Z,15.33
2017-12-29T01:22:54.086Z,19.57
2017-12-29T01:25:21.479Z,17.53
2017-12-29T01:27:48.857Z,13.10
2017-12-29T01:30:16.249Z,17.37
2017-12-29T01:32:43.640Z,17.87
2017-12-29T01:35:11.036Z,17.33
2017-12-29T01:37:38.418Z,10.47
2017-12-29T01:40:05.819Z,14.53
2017-12-29T01:42:33.217Z,15.60
2017-12-29T01:45:00.598Z,23.57
2017-12-29T01:47:27.983Z,11.90
2017-12-29T01:49:55.387Z,16.53
2017-12-29T01:52:22.767Z,14.00
2017-12-29T01:54:50.151Z,16.87
2017-12-29T01:57:17.547Z,18.20
2017-12-29T01:59:44.926Z,16.60
2017-12-29T02:02:12.319Z,11.93
2017-12-29T02:04:39.720Z,16.53
2017-12-29T02:07:07.110Z,14.60
2017-12-29T02:09:34.503Z,16.80
2017-12-29T02:12:01.905Z,13.50
2017-12-29T02:14:29.291Z,20.63
2017-12-29T02:16:56.691Z,17.23
2017-12-29T02:19:24.073Z,17.10
2017-12-29T02:21:51.478Z,17.17
2017-12-29T02:24:18.862Z,14.47
2017-12-29T02:26:46.267Z,15.23
2017-12-29T02:29:13.659Z,15.20
2017-12-29T02:31:41.162Z,14.93
2017-12-29T02:34:08.559Z,18.40
2017-12-29T02:36:35.939Z,19.23
2017-12-29T02:39:03.335Z,17.60
2017-12-29T02:41:30.722Z,16.97
2017-12-29T02:43:58.111Z,12.50
2017-12-29T02:46:25.551Z,18.10
2017-12-29T02:48:52.932Z,17.90
2017-12-29T02:51:20.402Z,14.40
2017-12-29T02:53:47.799Z,17.57
2017-12-29T02:56:15.184Z,14.93
2017-12-29T02:58:42.579Z,17.07
2017-12-29T03:01:09.967Z,21.43
2017-12-29T03:03:38.359Z,14.67
2017-12-29T03:06:05.737Z,12.30
2017-12-29T03:08:33.138Z,22.27
2017-12-29T03:11:00.519Z,18.50
2017-12-29T03:13:27.918Z,13.37
2017-12-29T03:15:55.326Z,15.30
2017-12-29T03:18:22.730Z,17.53
2017-12-29T03:20:50.133Z,16.80
2017-12-29T03:23:17.524Z,16.37
2017-12-29T03:25:44.907Z,20.50
2017-12-29T03:28:12.297Z,18.53
2017-12-29T03:30:39.686Z,16.57
2017-12-29T03:33:07.071Z,20.00
2017-12-29T03:35:34.486Z,12.53
2017-12-29T03:38:01.882Z,14.40
2017-12-29T03:40:29.278Z,23.37
2017-12-29T03:42:56.673Z,24.90
2017-12-29T03:45:24.061Z,22.10
2017-12-29T03:47:51.466Z,20.70
2017-12-29T03:50:18.874Z,19.53
2017-12-29T03:52:46.270Z,35.40
2017-12-29T03:55:13.658Z,14.70
2017-12-29T03:57:41.082Z,16.93
2017-12-29T04:00:08.466Z,14.73
2017-12-29T04:02:35.918Z,14.20
2017-12-29T04:05:03.310Z,15.53
2017-12-29T04:07:30.709Z,17.60
2017-12-29T04:09:58.107Z,21.07
2017-12-29T04:12:25.486Z,16.70
2017-12-29T04:14:52.904Z,17.80
2017-12-29T04:17:20.277Z,22.77
2017-12-29T04:19:47.692Z,18.20
2017-12-29T04:22:15.074Z,18.77
2017-12-29T04:24:42.478Z,18.37
2017-12-29T04:27:09.853Z,17.50
2017-12-29T04:29:37.243Z,21.23
2017-12-29T04:32:04.651Z,19.13
2017-12-29T04:34:32.045Z,13.63
2017-12-29T04:36:59.425Z,15.67
2017-12-29T04:39:26.826Z,27.57
2017-12-29T04:41:54.218Z,17.17
2017-12-29T04:44:21.610Z,19.53
2017-12-29T04:46:49.000Z,19.43
2017-12-29T04:49:16.386Z,15.03
2017-12-29T04:51:43.774Z,19.97
2017-12-29T04:54:11.169Z,26.13
2017-12-29T04:56:38.558Z,20.33
2017-12-29T04:59:05.954Z,23.13
2017-12-29T05:01:33.347Z,17.00
2017-12-29T05:04:00.738Z,24.00
2017-12-29T05:06:28.150Z,23.23
2017-12-29T05:08:55.553Z,14.43
2017-12-29T05:11:22.982Z,15.43
2017-12-29T05:13:50.419Z,30.80
2017-12-29T05:16:17.867Z,22.27
2017-12-29T05:18:45.250Z,23.03
2017-12-29T05:21:12.667Z,22.10
2017-12-29T05:23:40.073Z,22.27
2017-12-29T05:26:07.466Z,24.27
2017-12-29T05:28:34.873Z,18.43
2017-12-29T05:31:02.263Z,18.20
2017-12-29T05:33:29.653Z,22.10
2017-12-29T05:35:57.046Z,22.97
2017-12-29T05:38:24.462Z,25.93
2017-12-29T05:40:51.855Z,16.40
2017-12-29T05:43:19.244Z,24.63
2017-12-29T05:45:46.640Z,29.33
2017-12-29T05:48:14.049Z,26.27
2017-12-29T05:50:41.435Z,27.77
2017-12-29T05:53:08.817Z,21.33
2017-12-29T05:55:36.223Z,19.50
2017-12-29T05:58:03.608Z,15.70
2017-12-29T06:00:31.006Z,25.90
2017-12-29T06:02:58.399Z,18.93
2017-12-29T06:05:25.865Z,22.70
2017-12-29T06:07:53.271Z,22.30
2017-12-29T06:10:20.665Z,26.73
2017-12-29T06:12:48.058Z,16.67
2017-12-29T06:15:15.625Z,23.27
2017-12-29T06:17:43.015Z,22.93
2017-12-29T06:20:10.400Z,17.83
2017-12-29T06:22:37.795Z,19.37
2017-12-29T06:25:05.184Z,18.67
2017-12-29T06:27:32.575Z,17.63
2017-12-29T06:29:59.970Z,17.00
2017-12-29T06:32:27.479Z,21.50
2017-12-29T06:34:54.858Z,30.13
2017-12-29T06:37:22.254Z,23.77
2017-12-29T06:39:49.742Z,27.83
2017-12-29T06:42:17.134Z,18.77
2017-12-29T06:44:44.543Z,21.03
2017-12-29T06:47:11.946Z,20.87
2017-12-29T06:49:39.335Z,29.20
2017-12-29T06:52:06.733Z,21.60
2017-12-29T06:54:34.123Z,21.50
2017-12-29T06:57:01.516Z,27.10
2017-12-29T06:59:28.907Z,17.53
2017-12-29T07:01:56.307Z,15.53
2017-12-29T07:04:23.702Z,16.37
2017-12-29T07:06:51.095Z,19.30
2017-12-29T07:09:18.482Z,16.67
2017-12-29T07:11:45.881Z,24.97
2017-12-29T07:14:13.273Z,14.47
2017-12-29T07:16:40.673Z,23.70
2017-12-29T07:19:08.058Z,26.37
2017-12-29T07:21:35.459Z,27.13
2017-12-29T07:24:02.844Z,20.57
2017-12-29T07:26:30.230Z,30.43
2017-12-29T07:28:57.613Z,24.33
2017-12-29T07:31:25.014Z,25.20
2017-12-29T07:33:52.416Z,21.63
2017-12-29T07:36:19.830Z,26.40
2017-12-29T07:38:47.226Z,19.73
2017-12-29T07:41:14.630Z,22.93
2017-12-29T07:43:42.014Z,30.80
2017-12-29T07:46:09.408Z,22.43
2017-12-29T07:48:36.799Z,27.17
2017-12-29T07:51:04.194Z,17.57
2017-12-29T07:53:31.586Z,30.00
2017-12-29T07:55:59.003Z,26.37
2017-12-29T07:58:26.416Z,25.20
2017-12-29T08:00:53.810Z,25.63
2017-12-29T08:03:21.203Z,31.23
2017-12-29T08:05:48.887Z,31.17
2017-12-29T08:08:16.274Z,32.70
2017-12-29T08:10:43.674Z,21.87
2017-12-29T08:13:11.062Z,26.50
2017-12-29T08:15:38.737Z,24.10
2017-12-29T08:18:06.384Z,25.23
2017-12-29T08:20:33.783Z,25.47
2017-12-29T08:23:01.166Z,27.17
2017-12-29T08:25:28.551Z,29.90
2017-12-29T08:27:55.995Z,29.27
2017-12-29T08:30:23.386Z,41.17
2017-12-29T08:32:50.787Z,26.63
2017-12-29T08:35:18.172Z,29.63
2017-12-29T08:37:45.566Z,28.93
2017-12-29T08:40:12.961Z,30.33
2017-12-29T08:42:40.350Z,20.47
2017-12-29T08:45:07.743Z,21.40
2017-12-29T08:47:35.147Z,18.30
2017-12-29T08:50:02.534Z,17.47
2017-12-29T08:52:29.926Z,25.27
2017-12-29T08:54:57.320Z,20.93
2017-12-29T08:57:24.710Z,31.53
2017-12-29T08:59:52.122Z,22.87
2017-12-29T09:02:19.509Z,22.10
2017-12-29T09:04:46.910Z,22.77
2017-12-29T09:07:14.306Z,22.57
2017-12-29T09:09:41.690Z,21.57
2017-12-29T09:12:09.090Z,26.43
2017-12-29T09:14:36.480Z,21.37
2017-12-29T09:17:03.890Z,21.23
2017-12-29T09:19:31.289Z,20.07
2017-12-29T09:21:58.678Z,20.60
2017-12-29T09:24:26.069Z,16.70
2017-12-29T09:26:53.462Z,17.60
2017-12-29T09:29:20.862Z,15.63
2017-12-29T09:31:48.250Z,19.83
2017-12-29T09:34:15.642Z,17.50
2017-12-29T09:36:43.038Z,18.37
2017-12-29T09:39:10.430Z,22.50
2017-12-29T09:41:37.818Z,20.97
2017-12-29T09:44:05.221Z,16.57
2017-12-29T09:46:32.603Z,17.57
2017-12-29T09:49:00.003Z,11.57
2017-12-29T09:51:27.386Z,17.67
2017-12-29T09:53:54.778Z,13.90
2017-12-29T09:56:22.179Z,18.10
2017-12-29T09:58:49.594Z,15.50
2017-12-29T10:01:16.981Z,15.57
2017-12-29T10:03:44.364Z,17.33
2017-12-29T10:06:11.750Z,16.07
2017-12-29T10:08:39.154Z,15.73
2017-12-29T10:11:06.550Z,13.47
2017-12-29T10:13:33.933Z,12.57
2017-12-29T10:16:01.390Z,20.70
2017-12-29T10:18:28.787Z,20.43
2017-12-29T10:20:56.183Z,17.37
2017-12-29T10:23:23.578Z,16.57
2017-12-29T10:25:51.002Z,24.93
2017-12-29T10:28:18.394Z,13.13
2017-12-29T10:30:45.822Z,14.50
2017-12-29T10:33:13.229Z,15.87
2017-12-29T10:35:40.610Z,19.67
2017-12-29T10:38:08.002Z,19.67
2017-12-29T10:40:35.399Z,19.97
2017-12-29T10:43:02.789Z,9.20
2017-12-29T10:45:30.167Z,30.23
2017-12-29T10:47:57.564Z,14.17
2017-12-29T10:50:24.956Z,16.50
2017-12-29T10:52:52.331Z,13.90
2017-12-29T10:55:19.723Z,10.23
2017-12-29T10:57:47.131Z,13.17
2017-12-29T11:00:14.518Z,15.30
2017-12-29T11:02:41.905Z,15.23
2017-12-29T11:05:09.299Z,15.57
2017-12-29T11:07:36.686Z,7.23
2017-12-29T11:10:04.082Z,10.83
2017-12-29T11:12:31.476Z,18.37
2017-12-29T11:14:58.884Z,28.93
2017-12-29T11:17:26.266Z,12.80
2017-12-29T11:19:53.659Z,10.57
2017-12-29T11:22:21.045Z,10.73
2017-12-29T11:24:48.458Z,12.40
2017-12-29T11:27:15.873Z,14.30
2017-12-29T11:29:43.271Z,10.83
2017-12-29T11:32:10.667Z,14.77
2017-12-29T11:34:38.055Z,17.90
2017-12-29T11:37:05.458Z,13.73
2017-12-29T11:39:32.859Z,8.27
2017-12-29T11:42:00.596Z,12.90
2017-12-29T11:44:28.022Z,7.80
2017-12-29T11:46:55.456Z,7.67
2017-12-29T11:49:22.842Z,10.30
2017-12-29T11:51:50.222Z,8.57
2017-12-29T11:54:17.619Z,14.33
2017-12-29T11:56:44.990Z,9.53
2017-12-29T11:59:12.378Z,10.67
2017-12-29T12:01:39.779Z,11.20
2017-12-29T12:04:07.170Z,9.27
2017-12-29T12:06:34.594Z,13.17
2017-12-29T12:09:01.990Z,10.00
2017-12-29T12:11:29.388Z,10.20
2017-12-29T12:13:56.817Z,14.77
2017-12-29T12:16:24.200Z,12.37
2017-12-29T12:18:51.588Z,7.53
2017-12-29T12:21:19.018Z,12.33
2017-12-29T12:23:46.377Z,9.70
2017-12-29T12:26:13.778Z,15.80
2017-12-29T12:28:41.162Z,7.93
2017-12-29T12:31:08.545Z,20.17
2017-12-29T12:33:35.992Z,33.03
2017-12-29T12:36:03.371Z,4.33
2017-12-29T12:38:30.749Z,5.73
2017-12-29T12:40:58.253Z,10.30
2017-12-29T12:43:25.724Z,7.60
2017-12-29T12:45:53.117Z,12.70
2017-12-29T12:48:20.502Z,6.93
2017-12-29T12:50:47.979Z,10.07
2017-12-29T12:53:15.361Z,7.00
2017-12-29T12:55:42.748Z,5.27
2017-12-29T12:58:10.138Z,8.63
2017-12-29T13:00:37.526Z,7.70
2017-12-29T13:03:04.914Z,3.63
2017-12-29T13:05:32.302Z,9.30
2017-12-29T13:07:59.681Z,4.10
2017-12-29T13:10:27.079Z,5.40
2017-12-29T13:12:54.453Z,8.50
2017-12-29T13:15:21.847Z,3.40
2017-12-29T13:17:49.230Z,6.83
2017-12-29T13:20:16.615Z,8.27
2017-12-29T13:22:43.994Z,5.53
2017-12-29T13:25:11.401Z,2.27
2017-12-29T13:27:38.771Z,3.67
2017-12-29T13:30:06.158Z,2.43
2017-12-29T13:32:33.547Z,5.33
2017-12-29T13:35:00.930Z,5.60
2017-12-29T13:37:28.311Z,2.40
2017-12-29T13:39:55.715Z,5.90
2017-12-29T13:42:23.098Z,3.93
2017-12-29T13:44:50.491Z,5.33
2017-12-29T13:47:17.870Z,1.43
2017-12-29T13:49:45.299Z,4.53
2017-12-29T13:52:12.674Z,1.73
2017-12-29T13:54:40.078Z,6.00
2017-12-29T13:57:07.454Z,4.93
2017-12-29T13:59:34.842Z,8.33
2017-12-29T14:02:02.241Z,3.40
2017-12-29T14:04:29.751Z,7.10
2017-12-29T14:06:57.140Z,1.63
2017-12-29T14:09:24.530Z,11.73
2017-12-29T14:11:51.906Z,3.57
2017-12-29T14:14:19.296Z,6.03
2017-12-29T14:16:46.677Z,3.83
2017-12-29T14:19:14.062Z,3.67
2017-12-29T14:21:41.509Z,2.57
2017-12-29T14:24:08.890Z,2.87
2017-12-29T14:26:36.323Z,2.13
2017-12-29T14:29:03.782Z,1.50
2017-12-29T14:31:31.178Z,2.73
2017-12-29T14:33:58.582Z,2.50
2017-12-29T14:36:25.970Z,2.70
2017-12-29T14:38:53.354Z,1.97
2017-12-29T14:41:20.746Z,11.33
2017-12-29T14:43:48.134Z,2.30
2017-12-29T14:46:15.528Z,1.50
2017-12-29T14:48:42.902Z,2.40
2017-12-29T14:51:10.294Z,8.17
2017-12-29T14:53:37.667Z,7.30
2017-12-29T14:56:05.072Z,4.87
2017-12-29T14:58:32.471Z,2.30
2017-12-29T15:00:59.858Z,3.60
2017-12-29T15:03:27.241Z,4.63
2017-12-29T15:05:54.643Z,2.20
2017-12-29T15:08:22.027Z,3.83
2017-12-29T15:10:49.412Z,2.50
2017-12-29T15:13:16.947Z,5.33
2017-12-29T15:15:44.374Z,6.70
2017-12-29T15:18:11.754Z,4.63
2017-12-29T15:20:39.810Z,4.90
2017-12-29T15:23:07.194Z,1.90
2017-12-29T15:25:34.673Z,3.67
2017-12-29T15:28:02.054Z,2.83
2017-12-29T15:30:29.443Z,3.27
2017-12-29T15:32:56.827Z,8.13
2017-12-29T15:35:24.206Z,2.93
2017-12-29T15:37:51.585Z,2.40
2017-12-29T15:40:18.968Z,4.20
2017-12-29T15:42:46.355Z,2.33
2017-12-29T15:45:13.752Z,3.27
2017-12-29T15:47:41.134Z,2.47
2017-12-29T15:50:08.546Z,3.03
2017-12-29T15:52:35.935Z,3.33
2017-12-29T15:55:03.328Z,4.87
2017-12-29T15:57:30.793Z,2.40
2017-12-29T15:59:58.245Z,3.50
2017-12-29T16:02:26.538Z,2.30
2017-12-29T16:04:53.931Z,3.83
2017-12-29T16:07:21.323Z,4.07
2017-12-29T16:09:48.726Z,4.10
2017-12-29T16:12:16.117Z,10.50
2017-12-29T16:14:43.513Z,3.10
2017-12-29T16:17:10.886Z,3.00
2017-12-29T16:19:38.263Z,3.30
2017-12-29T16:22:05.730Z,4.53
2017-12-29T16:24:33.111Z,2.87
2017-12-29T16:27:00.498Z,2.17
2017-12-29T16:29:27.885Z,2.43
2017-12-29T16:31:55.271Z,2.70
2017-12-29T16:34:22.648Z,4.20
2017-12-29T16:36:50.034Z,5.87
2017-12-29T16:39:17.410Z,2.50
2017-12-29T16:41:44.797Z,6.90
2017-12-29T16:44:12.186Z,2.53
2017-12-29T16:46:39.582Z,2.00
2017-12-29T16:49:06.975Z,4.93
2017-12-29T16:51:34.370Z,4.23
2017-12-29T16:54:01.758Z,2.40
2017-12-29T16:56:29.143Z,2.03
2017-12-29T16:58:56.536Z,4.10
2017-12-29T17:01:23.917Z,2.17
2017-12-29T17:03:51.343Z,2.60
2017-12-29T17:06:18.689Z,7.00
2017-12-29T17:08:46.078Z,4.50
2017-12-29T17:11:13.466Z,8.40
2017-12-29T17:13:41.779Z,7.60
2017-12-29T17:16:09.169Z,3.37
2017-12-29T17:18:36.558Z,8.23
2017-12-29T17:21:03.937Z,4.50
2017-12-29T17:23:31.322Z,6.53
2017-12-29T17:25:58.706Z,2.13
2017-12-29T17:28:26.089Z,3.30
2017-12-29T17:30:53.482Z,6.97
2017-12-29T17:33:20.866Z,3.33
2017-12-29T17:35:48.256Z,3.30
2017-12-29T17:38:15.662Z,4.30
2017-12-29T17:40:43.130Z,7.93
2017-12-29T17:43:10.529Z,4.13
2017-12-29T17:45:37.910Z,2.93
2017-12-29T17:48:05.298Z,2.50
2017-12-29T17:50:32.690Z,5.03
2017-12-29T17:53:00.076Z,4.30
2017-12-29T17:55:27.462Z,3.03
2017-12-29T17:57:54.846Z,3.93
2017-12-29T18:00:22.283Z,11.63
2017-12-29T18:02:49.654Z,2.73
2017-12-29T18:05:17.034Z,2.93
2017-12-29T18:07:44.434Z,9.43
2017-12-29T18:10:11.857Z,3.10
2017-12-29T18:12:39.203Z,3.70
2017-12-29T18:15:06.574Z,4.10
2017-12-29T18:17:34.078Z,5.17
2017-12-29T18:20:01.462Z,3.70
2017-12-29T18:22:28.851Z,5.23
2017-12-29T18:24:56.234Z,5.10
2017-12-29T18:27:23.630Z,2.53
2017-12-29T18:29:51.300Z,4.73
2017-12-29T18:32:18.695Z,3.20
2017-12-29T18:34:46.078Z,2.77
2017-12-29T18:37:13.511Z,4.40
2017-12-29T18:39:40.890Z,9.00
2017-12-29T18:42:08.403Z,3.40
2017-12-29T18:44:35.793Z,4.03
2017-12-29T18:47:03.185Z,4.00
2017-12-29T18:49:30.566Z,6.33
2017-12-29T18:51:57.946Z,6.73
2017-12-29T18:54:25.322Z,4.53
2017-12-29T18:56:52.726Z,7.00
2017-12-29T18:59:20.102Z,8.23
2017-12-29T19:01:47.495Z,6.90
2017-12-29T19:04:14.918Z,5.10
2017-12-29T19:06:42.261Z,5.27
2017-12-29T19:09:09.635Z,7.23
2017-12-29T19:11:37.033Z,10.40
2017-12-29T19:14:04.414Z,10.13
2017-12-29T19:16:31.798Z,12.80
2017-12-29T19:18:59.183Z,5.47
2017-12-29T19:21:26.575Z,7.27
2017-12-29T19:23:54.983Z,8.70
2017-12-29T19:26:22.374Z,19.80
2017-12-29T19:28:49.778Z,7.90
2017-12-29T19:31:17.161Z,7.77
2017-12-29T19:33:44.553Z,8.43
2017-12-29T19:36:11.939Z,7.60
2017-12-29T19:38:39.329Z,10.13
2017-12-29T19:41:06.718Z,11.33
2017-12-29T19:43:34.104Z,6.30
2017-12-29T19:46:01.479Z,5.93
2017-12-29T19:48:28.884Z,10.77
2017-12-29T19:50:56.259Z,7.30
2017-12-29T19:53:23.651Z,10.27
2017-12-29T19:55:51.026Z,5.70
2017-12-29T19:58:18.422Z,8.73
2017-12-29T20:00:45.917Z,7.43
2017-12-29T20:03:13.286Z,5.70
2017-12-29T20:05:40.677Z,7.80
2017-12-29T20:08:08.070Z,8.43
2017-12-29T20:10:35.440Z,6.10
2017-12-29T20:13:02.842Z,13.67
2017-12-29T20:15:30.232Z,13.77
2017-12-29T20:17:57.623Z,15.03
2017-12-29T20:20:25.028Z,8.70
2017-12-29T20:22:52.524Z,7.10
2017-12-29T20:25:19.914Z,11.33
2017-12-29T20:27:47.315Z,9.80
2017-12-29T20:30:14.768Z,14.20
2017-12-29T20:32:42.194Z,12.00
2017-12-29T20:35:09.543Z,10.47
2017-12-29T20:37:37.014Z,5.60
2017-12-29T20:40:04.407Z,10.17
2017-12-29T20:42:31.798Z,10.83
2017-12-29T20:44:59.196Z,10.40
2017-12-29T20:47:26.592Z,9.00
2017-12-29T20:49:53.972Z,6.23
2017-12-29T20:52:21.378Z,12.57
2017-12-29T20:54:48.758Z,9.20
2017-12-29T20:57:16.161Z,12.73
2017-12-29T20:59:43.537Z,7.57
2017-12-29T21:02:10.927Z,7.00
2017-12-29T21:04:38.306Z,5.97
2017-12-29T21:07:05.695Z,8.20
2017-12-29T21:09:33.112Z,7.77
2017-12-29T21:12:00.522Z,11.50
2017-12-29T21:14:27.949Z,10.57
2017-12-29T21:16:55.335Z,9.13
2017-12-29T21:19:22.789Z,6.50
2017-12-29T21:21:50.210Z,13.07
2017-12-29T21:24:17.607Z,7.60
2017-12-29T21:26:45.000Z,9.17
2017-12-29T21:29:12.391Z,5.37
2017-12-29T21:31:39.770Z,9.20
2017-12-29T21:34:07.178Z,11.40
2017-12-29T21:36:34.671Z,7.37
2017-12-29T21:39:02.106Z,13.07
2017-12-29T21:41:29.506Z,11.83
2017-12-29T21:43:56.884Z,8.23
2017-12-29T21:46:24.268Z,7.00
2017-12-29T21:48:51.674Z,8.30
2017-12-29T21:51:19.094Z,9.80
2017-12-29T21:53:46.483Z,7.30
2017-12-29T21:56:13.891Z,13.57
2017-12-29T21:58:41.293Z,6.70
2017-12-29T22:01:08.695Z,8.03
2017-12-29T22:03:36.086Z,12.67
2017-12-29T22:06:03.489Z,11.97
2017-12-29T22:08:30.920Z,6.93
2017-12-29T22:10:58.286Z,13.40
2017-12-29T22:13:25.678Z,10.60
2017-12-29T22:15:53.076Z,11.00
2017-12-29T22:18:20.463Z,8.00
2017-12-29T22:20:47.839Z,9.00
2017-12-29T22:23:15.231Z,11.53
2017-12-29T22:25:42.610Z,9.10
2017-12-29T22:28:10.003Z,8.50
2017-12-29T22:30:37.386Z,9.80
2017-12-29T22:33:04.778Z,10.43
2017-12-29T22:35:32.171Z,8.43
2017-12-29T22:37:59.587Z,12.20
2017-12-29T22:40:26.975Z,9.47
2017-12-29T22:42:54.368Z,10.27
2017-12-29T22:45:21.754Z,8.80
2017-12-29T22:47:49.150Z,11.37
2017-12-29T22:50:16.570Z,12.13
2017-12-29T22:52:43.954Z,8.90
2017-12-29T22:55:11.342Z,8.30
2017-12-29T22:57:38.734Z,8.47
2017-12-29T23:00:06.118Z,8.37
2017-12-29T23:02:33.502Z,8.60
2017-12-29T23:05:00.903Z,7.30
2017-12-29T23:07:28.275Z,9.40
2017-12-29T23:09:55.790Z,7.10
2017-12-29T23:12:23.174Z,11.20
2017-12-29T23:14:50.561Z,7.07
2017-12-29T23:17:17.947Z,6.33
2017-12-29T23:19:45.338Z,5.13
2017-12-29T23:22:12.725Z,7.60
2017-12-29T23:24:40.110Z,6.40
2017-12-29T23:27:07.483Z,7.83
2017-12-29T23:29:34.887Z,6.23
2017-12-29T23:32:02.262Z,7.00
2017-12-29T23:34:29.651Z,7.13
2017-12-29T23:36:57.030Z,6.60
2017-12-29T23:39:24.421Z,7.20
2017-12-29T23:41:51.803Z,6.97
2017-12-29T23:44:19.199Z,8.40
2017-12-29T23:46:46.626Z,6.63
2017-12-29T23:49:14.015Z,7.73
2017-12-29T23:51:41.394Z,6.37
2017-12-29T23:54:08.783Z,5.53
2017-12-29T23:56:36.167Z,7.00
2017-12-29T23:59:03.556Z,12.13
